createdAt,value
2022-10-19T00:00:51.381Z,20.81
2022-10-19T00:03:22.299Z,20.70
2022-10-19T00:05:50.430Z,20.62
2022-10-19T00:08:17.547Z,20.49
2022-10-19T00:10:44.957Z,20.40
2022-10-19T00:13:12.067Z,20.66
2022-10-19T00:15:41.939Z,20.84
2022-10-19T00:18:09.401Z,20.70
2022-10-19T00:20:36.620Z,20.71
2022-10-19T00:23:03.827Z,20.82
2022-10-19T00:25:31.197Z,20.94
2022-10-19T00:27:58.312Z,20.85
2022-10-19T00:30:25.435Z,20.82
2022-10-19T00:32:53.828Z,20.79
2022-10-19T00:35:20.954Z,20.54
2022-10-19T00:37:48.050Z,20.72
2022-10-19T00:40:15.432Z,20.52
2022-10-19T00:42:42.556Z,20.59
2022-10-19T00:45:18.432Z,20.64
2022-10-19T00:47:45.978Z,20.48
2022-10-19T00:50:13.535Z,20.60
2022-10-19T00:52:40.652Z,20.62
2022-10-19T00:55:08.256Z,20.85
2022-10-19T00:57:35.358Z,20.92
2022-10-19T01:00:04.517Z,20.93
2022-10-19T01:02:32.160Z,20.49
2022-10-19T01:04:59.496Z,20.70
2022-10-19T01:07:26.726Z,20.28
2022-10-19T01:09:54.300Z,20.46
2022-10-19T01:12:32.824Z,20.32
2022-10-19T01:15:10.558Z,20.54
2022-10-19T01:17:50.100Z,20.57
2022-10-19T01:20:36.477Z,20.17
2022-10-19T01:23:22.242Z,19.84
2022-10-19T01:26:01.073Z,19.72
2022-10-19T01:28:47.205Z,19.78
2022-10-19T01:31:32.829Z,20.12
2022-10-19T01:34:03.096Z,19.96
2022-10-19T01:36:53.460Z,19.90
2022-10-19T01:39:23.620Z,19.98
2022-10-19T01:42:00.163Z,19.92
2022-10-19T01:44:33.067Z,19.93
2022-10-19T01:47:01.305Z,20.10
2022-10-19T01:49:37.769Z,20.18
2022-10-19T01:52:05.680Z,20.53
2022-10-19T01:54:34.542Z,20.45
2022-10-19T01:57:01.925Z,20.65
2022-10-19T01:59:29.328Z,20.62
2022-10-19T02:01:56.471Z,20.45
2022-10-19T02:04:24.598Z,20.39
2022-10-19T02:06:54.853Z,20.56
2022-10-19T02:09:21.977Z,20.07
2022-10-19T02:11:51.342Z,20.37
2022-10-19T02:14:22.680Z,19.90
2022-10-19T02:16:51.679Z,20.08
2022-10-19T02:19:20.217Z,19.61
2022-10-19T02:21:47.350Z,19.17
2022-10-19T02:24:14.746Z,19.21
2022-10-19T02:26:41.865Z,19.36
2022-10-19T02:29:09.159Z,19.58
2022-10-19T02:31:36.558Z,19.08
2022-10-19T02:34:03.677Z,19.36
2022-10-19T02:36:30.910Z,19.54
2022-10-19T02:38:58.290Z,19.75
2022-10-19T02:41:33.013Z,18.97
2022-10-19T02:44:13.592Z,19.01
2022-10-19T02:46:41.826Z,18.77
2022-10-19T02:49:09.430Z,19.59
2022-10-19T02:51:37.444Z,19.10
2022-10-19T02:54:05.592Z,19.44
2022-10-19T02:56:33.408Z,19.43
2022-10-19T02:59:00.689Z,19.15
2022-10-19T03:01:27.805Z,18.79
2022-10-19T03:03:55.190Z,19.18
2022-10-19T03:06:22.328Z,19.45
2022-10-19T03:08:49.435Z,19.29
2022-10-19T03:11:16.811Z,19.15
2022-10-19T03:13:43.989Z,18.87
2022-10-19T03:16:11.654Z,18.34
2022-10-19T03:18:39.295Z,18.89
2022-10-19T03:21:07.393Z,18.28
2022-10-19T03:23:34.723Z,18.14
2022-10-19T03:26:02.090Z,17.40
2022-10-19T03:28:29.215Z,17.15
2022-10-19T03:30:56.405Z,17.62
2022-10-19T03:36:28.889Z,17.26
2022-10-19T03:38:57.334Z,18.09
2022-10-19T03:41:25.319Z,17.50
2022-10-19T03:43:52.468Z,17.60
2022-10-19T03:46:20.047Z,18.05
2022-10-19T03:48:47.481Z,18.14
2022-10-19T03:51:15.349Z,18.36
2022-10-19T03:53:42.933Z,18.74
2022-10-19T03:56:14.164Z,18.28
2022-10-19T03:58:42.221Z,18.35
2022-10-19T04:01:10.657Z,18.69
2022-10-19T04:03:38.110Z,18.85
2022-10-19T04:06:09.462Z,18.87
2022-10-19T04:08:36.612Z,19.11
2022-10-19T04:11:05.033Z,19.40
2022-10-19T04:13:32.255Z,18.86
2022-10-19T04:15:59.500Z,19.31
2022-10-19T04:18:26.910Z,18.82
2022-10-19T04:20:57.887Z,18.84
2022-10-19T04:23:26.607Z,19.19
2022-10-19T04:25:59.109Z,18.90
2022-10-19T04:28:26.279Z,17.67
2022-10-19T04:30:53.725Z,17.59
2022-10-19T04:33:20.839Z,17.49
2022-10-19T04:35:47.955Z,15.86
2022-10-19T04:38:16.362Z,16.19
2022-10-19T04:40:45.825Z,15.80
2022-10-19T04:43:12.950Z,16.13
2022-10-19T04:45:40.376Z,16.05
2022-10-19T04:48:07.483Z,16.77
2022-10-19T04:50:34.654Z,16.60
2022-10-19T04:53:02.021Z,16.69
2022-10-19T04:55:29.189Z,16.36
2022-10-19T04:57:56.388Z,16.95
2022-10-19T05:00:23.775Z,15.76
2022-10-19T05:02:50.881Z,16.58
2022-10-19T05:05:17.979Z,16.16
2022-10-19T05:07:45.404Z,15.74
2022-10-19T05:10:12.518Z,15.59
2022-10-19T05:12:39.643Z,14.98
2022-10-19T05:15:07.273Z,15.93
2022-10-19T05:17:34.593Z,15.67
2022-10-19T05:20:01.927Z,15.95
2022-10-19T05:22:29.313Z,15.96
2022-10-19T05:24:58.169Z,15.36
2022-10-19T05:27:25.508Z,16.61
2022-10-19T05:29:52.901Z,16.39
2022-10-19T05:32:20.007Z,15.45
2022-10-19T05:34:47.130Z,15.37
2022-10-19T05:37:15.868Z,15.24
2022-10-19T05:39:43.249Z,16.32
2022-10-19T05:42:10.412Z,17.13
2022-10-19T05:47:06.259Z,15.92
2022-10-19T05:49:41.965Z,15.41
2022-10-19T05:52:09.506Z,15.56
2022-10-19T05:54:36.982Z,15.98
2022-10-19T05:57:04.713Z,15.91
2022-10-19T05:59:32.336Z,15.53
2022-10-19T06:02:03.399Z,14.98
2022-10-19T06:04:30.984Z,15.78
2022-10-19T06:06:58.097Z,15.71
2022-10-19T06:09:25.560Z,15.27
2022-10-19T06:11:53.070Z,15.95
2022-10-19T06:14:20.176Z,15.47
2022-10-19T06:16:47.772Z,16.35
2022-10-19T06:19:15.316Z,16.22
2022-10-19T06:21:45.670Z,16.53
2022-10-19T06:24:13.382Z,16.39
2022-10-19T06:26:40.890Z,16.11
2022-10-19T06:29:08.240Z,16.12
2022-10-19T06:31:37.318Z,16.88
2022-10-19T06:34:04.837Z,16.26
2022-10-19T06:36:32.228Z,16.63
2022-10-19T06:39:02.378Z,17.20
2022-10-19T06:41:30.605Z,16.36
2022-10-19T06:44:01.827Z,16.66
2022-10-19T06:46:29.053Z,17.70
2022-10-19T06:48:57.575Z,16.76
2022-10-19T06:51:26.053Z,16.75
2022-10-19T06:53:56.503Z,15.85
2022-10-19T06:56:25.345Z,16.59
2022-10-19T06:58:52.473Z,16.13
2022-10-19T07:01:20.176Z,16.86
2022-10-19T07:03:47.943Z,16.34
2022-10-19T07:06:15.080Z,16.68
2022-10-19T07:08:43.939Z,16.24
2022-10-19T07:11:12.994Z,16.00
2022-10-19T07:13:40.213Z,16.65
2022-10-19T07:16:08.454Z,16.04
2022-10-19T07:18:36.165Z,15.96
2022-10-19T07:21:04.244Z,16.22
2022-10-19T07:23:32.033Z,16.19
2022-10-19T07:26:01.868Z,16.44
2022-10-19T07:28:29.388Z,17.04
2022-10-19T07:30:56.711Z,16.74
2022-10-19T07:33:24.103Z,17.63
2022-10-19T07:35:51.224Z,17.59
2022-10-19T07:38:18.374Z,16.96
2022-10-19T07:40:47.432Z,17.75
2022-10-19T07:43:14.789Z,17.47
2022-10-19T07:45:41.905Z,17.83
2022-10-19T07:48:09.282Z,16.98
2022-10-19T07:50:36.403Z,16.95
2022-10-19T07:53:05.302Z,18.07
2022-10-19T07:55:34.058Z,17.64
2022-10-19T07:58:02.086Z,18.06
2022-10-19T08:00:29.877Z,17.70
2022-10-19T08:03:19.327Z,18.34
2022-10-19T08:05:44.523Z,18.47
2022-10-19T08:08:11.947Z,18.90
2022-10-19T08:10:39.112Z,19.52
2022-10-19T08:13:06.248Z,18.73
2022-10-19T08:15:33.716Z,19.10
2022-10-19T08:18:01.167Z,18.95
2022-10-19T08:20:28.348Z,18.96
2022-10-19T08:22:58.831Z,19.19
2022-10-19T08:25:26.346Z,18.77
2022-10-19T08:27:53.530Z,18.95
2022-10-19T08:30:21.025Z,18.88
2022-10-19T08:32:48.220Z,18.61
2022-10-19T08:35:15.365Z,19.57
2022-10-19T08:37:46.071Z,19.48
2022-10-19T08:40:17.613Z,19.95
2022-10-19T08:42:58.957Z,20.11
2022-10-19T08:45:27.423Z,21.30
2022-10-19T08:48:04.115Z,21.29
2022-10-19T08:50:36.683Z,21.45
2022-10-19T08:53:05.766Z,22.39
2022-10-19T08:55:42.146Z,21.24
2022-10-19T08:58:28.373Z,21.13
2022-10-19T09:00:58.315Z,21.04
2022-10-19T09:03:58.968Z,21.30
2022-10-19T09:06:30.025Z,20.87
2022-10-19T09:08:57.677Z,20.40
2022-10-19T09:11:26.090Z,20.92
2022-10-19T09:14:06.287Z,20.59
2022-10-19T09:16:35.094Z,21.13
2022-10-19T09:19:02.813Z,21.93
2022-10-19T09:21:40.826Z,21.21
2022-10-19T09:24:25.839Z,21.93
2022-10-19T09:26:53.806Z,22.76
2022-10-19T09:29:26.358Z,22.19
2022-10-19T09:31:54.380Z,21.99
2022-10-19T09:34:24.924Z,21.84
2022-10-19T09:36:58.777Z,22.53
2022-10-19T09:39:29.343Z,22.85
2022-10-19T09:42:04.921Z,23.21
2022-10-19T09:44:32.319Z,22.48
2022-10-19T09:47:18.391Z,21.96
2022-10-19T09:49:46.581Z,22.28
2022-10-19T09:52:37.087Z,21.93
2022-10-19T09:55:05.405Z,21.58
2022-10-19T09:57:32.866Z,21.40
2022-10-19T10:00:00.208Z,21.30
2022-10-19T10:02:31.883Z,21.41
2022-10-19T10:05:04.505Z,21.06
2022-10-19T10:07:37.953Z,20.76
2022-10-19T10:10:09.291Z,21.44
2022-10-19T10:12:36.499Z,21.72
2022-10-19T10:15:04.384Z,21.80
2022-10-19T10:17:31.834Z,21.72
2022-10-19T10:19:58.929Z,22.19
2022-10-19T10:22:30.471Z,21.84
2022-10-19T10:24:57.950Z,21.44
2022-10-19T10:27:32.575Z,21.96
2022-10-19T10:30:00.279Z,21.86
2022-10-19T10:32:28.648Z,22.00
2022-10-19T10:35:02.739Z,22.50
2022-10-19T10:37:36.919Z,22.19
2022-10-19T10:40:05.075Z,22.56
2022-10-19T10:42:35.130Z,21.64
2022-10-19T10:45:02.506Z,21.40
2022-10-19T10:47:29.748Z,22.64
2022-10-19T10:50:05.909Z,22.08
2022-10-19T10:52:33.687Z,22.39
2022-10-19T10:55:02.869Z,21.80
2022-10-19T10:57:37.772Z,22.22
2022-10-19T11:00:12.409Z,22.85
2022-10-19T11:02:40.793Z,22.57
2022-10-19T11:05:14.514Z,22.22
2022-10-19T11:07:44.029Z,21.99
2022-10-19T11:10:17.169Z,22.24
2022-10-19T11:12:46.235Z,22.48
2022-10-19T11:15:21.192Z,21.87
2022-10-19T11:17:52.053Z,21.86
2022-10-19T11:20:19.459Z,22.21
2022-10-19T11:22:54.919Z,21.91
2022-10-19T11:25:45.237Z,22.30
2022-10-19T11:28:17.463Z,22.11
2022-10-19T11:30:54.078Z,22.11
2022-10-19T11:33:40.215Z,22.21
2022-10-19T11:36:30.080Z,22.43
2022-10-19T11:38:57.163Z,22.95
2022-10-19T11:41:43.497Z,22.59
2022-10-19T11:44:10.614Z,22.24
2022-10-19T11:46:48.768Z,21.66
2022-10-19T11:49:21.968Z,21.77
2022-10-19T11:51:51.638Z,21.70
2022-10-19T11:54:18.704Z,22.00
2022-10-19T11:57:11.765Z,22.36
2022-10-19T12:00:00.187Z,21.99
2022-10-19T12:02:54.523Z,21.92
2022-10-19T12:05:24.919Z,21.19
2022-10-19T12:07:55.938Z,20.90
2022-10-19T12:10:32.609Z,20.96
2022-10-19T12:13:03.897Z,21.17
2022-10-19T12:15:44.458Z,21.85
2022-10-19T12:18:16.723Z,22.41
2022-10-19T12:20:48.338Z,22.16
2022-10-19T12:23:21.454Z,21.51
2022-10-19T12:25:48.855Z,21.90
2022-10-19T12:28:22.775Z,21.45
2022-10-19T12:30:50.508Z,21.85
2022-10-19T12:33:25.866Z,21.27
2022-10-19T12:35:59.481Z,21.27
2022-10-19T12:38:33.898Z,21.59
2022-10-19T12:41:05.157Z,22.19
2022-10-19T12:43:35.692Z,21.57
2022-10-19T12:46:26.189Z,21.96
2022-10-19T12:49:12.250Z,21.93
2022-10-19T12:51:46.355Z,22.05
2022-10-19T12:54:13.714Z,21.20
2022-10-19T12:56:47.931Z,21.53
2022-10-19T12:59:25.119Z,22.36
2022-10-19T13:01:52.695Z,22.18
2022-10-19T13:04:21.204Z,21.25
2022-10-19T13:06:52.456Z,21.57
2022-10-19T13:09:29.232Z,20.62
2022-10-19T13:12:17.812Z,21.56
2022-10-19T13:14:49.090Z,21.71
2022-10-19T13:17:35.101Z,21.21
2022-10-19T13:20:15.143Z,20.68
2022-10-19T13:22:49.513Z,20.80
2022-10-19T13:25:21.199Z,21.12
2022-10-19T13:27:49.013Z,21.48
2022-10-19T13:30:39.683Z,21.10
2022-10-19T13:33:25.871Z,20.46
2022-10-19T13:35:59.150Z,20.73
2022-10-19T13:38:27.364Z,20.59
2022-10-19T13:40:54.777Z,20.12
2022-10-19T13:43:25.675Z,20.33
2022-10-19T13:46:08.195Z,20.50
2022-10-19T13:48:35.560Z,20.64
2022-10-19T13:51:21.231Z,21.13
2022-10-19T13:53:51.910Z,21.33
2022-10-19T13:56:25.121Z,20.03
2022-10-19T13:59:11.574Z,20.37
2022-10-19T14:01:54.333Z,20.55
2022-10-19T14:04:21.762Z,20.85
2022-10-19T14:06:55.084Z,20.41
2022-10-19T14:09:25.704Z,20.66
2022-10-19T14:11:53.211Z,21.22
2022-10-19T14:14:21.750Z,20.39
2022-10-19T14:16:59.602Z,19.96
2022-10-19T14:19:31.183Z,19.79
2022-10-19T14:21:59.857Z,19.45
2022-10-19T14:24:31.635Z,19.18
2022-10-19T14:27:03.050Z,20.00
2022-10-19T14:29:30.344Z,18.87
2022-10-19T14:31:58.589Z,19.00
2022-10-19T14:34:26.068Z,18.62
2022-10-19T14:36:53.217Z,19.36
2022-10-19T14:39:24.330Z,19.26
2022-10-19T14:41:53.186Z,19.51
2022-10-19T14:44:32.366Z,19.25
2022-10-19T14:47:00.886Z,19.19
2022-10-19T14:49:27.999Z,19.22
2022-10-19T14:51:56.007Z,19.16
2022-10-19T14:54:29.224Z,19.55
2022-10-19T14:56:58.134Z,18.87
2022-10-19T14:59:34.710Z,19.15
2022-10-19T15:02:02.742Z,19.98
2022-10-19T15:04:31.940Z,19.40
2022-10-19T15:06:59.292Z,20.08
2022-10-19T15:09:37.005Z,20.12
2022-10-19T15:12:08.799Z,19.92
2022-10-19T15:14:37.042Z,20.05
2022-10-19T15:17:05.935Z,19.58
2022-10-19T15:19:33.237Z,19.88
2022-10-19T15:22:31.765Z,20.60
2022-10-19T15:40:45.526Z,19.09
2022-10-19T15:43:34.747Z,20.00
2022-10-19T15:46:06.347Z,19.79
2022-10-19T15:48:40.649Z,20.33
2022-10-19T16:05:08.660Z,19.32
2022-10-19T16:07:37.258Z,18.63
2022-10-19T16:10:05.226Z,19.36
2022-10-19T16:12:32.351Z,18.62
2022-10-19T16:14:59.989Z,18.78
2022-10-19T16:17:27.100Z,18.79
2022-10-19T16:19:55.323Z,19.28
2022-10-19T16:22:23.194Z,19.11
2022-10-19T16:24:50.478Z,19.31
2022-10-19T16:27:17.772Z,19.68
2022-10-19T16:29:50.025Z,19.28
2022-10-19T16:32:17.175Z,18.83
2022-10-19T16:34:44.292Z,18.52
2022-10-19T16:37:11.701Z,18.85
2022-10-19T16:39:39.101Z,18.59
2022-10-19T16:42:06.430Z,18.09
2022-10-19T16:44:33.979Z,18.59
2022-10-19T16:47:01.742Z,18.89
2022-10-19T16:49:29.141Z,19.09
2022-10-19T16:51:57.676Z,19.21
2022-10-19T16:54:26.841Z,18.94
2022-10-19T16:56:55.916Z,19.25
2022-10-19T16:59:23.752Z,19.80
2022-10-19T17:01:51.431Z,19.30
2022-10-19T17:04:19.500Z,19.28
2022-10-19T17:06:47.416Z,19.71
2022-10-19T17:09:37.101Z,19.55
2022-10-19T17:12:02.503Z,19.26
2022-10-19T17:14:30.182Z,19.23
2022-10-19T17:16:57.739Z,19.40
2022-10-19T17:19:25.736Z,19.38
2022-10-19T17:21:55.246Z,18.66
2022-10-19T17:24:23.431Z,18.83
2022-10-19T17:26:52.396Z,18.59
2022-10-19T17:29:21.417Z,17.55
2022-10-19T17:31:49.495Z,18.45
2022-10-19T17:34:17.290Z,18.42
2022-10-19T17:36:45.070Z,17.55
2022-10-19T17:39:14.632Z,17.15
2022-10-19T17:41:42.487Z,17.59
2022-10-19T17:44:10.123Z,17.25
2022-10-19T17:46:37.845Z,16.96
2022-10-19T17:49:05.535Z,17.70
2022-10-19T17:51:33.795Z,17.17
2022-10-19T17:54:02.899Z,17.54
2022-10-19T17:56:30.939Z,16.86
2022-10-19T17:59:03.565Z,17.05
2022-10-19T18:01:31.172Z,17.28
2022-10-19T18:03:59.602Z,17.46
2022-10-19T18:06:32.043Z,17.40
2022-10-19T18:09:00.431Z,17.91
2022-10-19T18:11:28.601Z,18.44
2022-10-19T18:13:59.446Z,17.82
2022-10-19T18:16:28.171Z,17.81
2022-10-19T18:18:57.396Z,17.32
2022-10-19T18:21:27.185Z,17.79
2022-10-19T18:23:56.559Z,18.11
2022-10-19T18:26:26.183Z,18.31
2022-10-19T18:28:54.518Z,18.18
2022-10-19T18:31:23.307Z,18.29
2022-10-19T18:33:55.891Z,17.74
2022-10-19T18:36:24.243Z,18.07
2022-10-19T18:38:52.482Z,17.80
2022-10-19T18:41:23.601Z,18.06
2022-10-19T18:43:55.801Z,18.37
2022-10-19T18:46:24.409Z,18.75
2022-10-19T18:48:52.429Z,17.67
2022-10-19T18:51:23.892Z,18.37
2022-10-19T18:53:52.000Z,18.59
2022-10-19T18:56:22.353Z,18.75
2022-10-19T18:58:50.403Z,18.55
2022-10-19T19:01:19.077Z,18.95
2022-10-19T19:03:47.597Z,19.04
2022-10-19T19:06:17.368Z,19.11
2022-10-19T19:08:45.332Z,19.38
2022-10-19T19:11:19.633Z,19.45
2022-10-19T19:13:48.162Z,19.57
2022-10-19T19:16:15.785Z,18.80
2022-10-19T19:18:45.839Z,18.99
2022-10-19T19:21:23.890Z,18.50
2022-10-19T19:23:51.435Z,18.53
2022-10-19T19:26:25.459Z,18.02
2022-10-19T19:28:52.970Z,18.31
2022-10-19T19:31:21.815Z,17.51
2022-10-19T19:33:50.560Z,17.49
2022-10-19T19:36:18.438Z,17.16
2022-10-19T19:38:46.895Z,17.80
2022-10-19T19:41:15.300Z,18.30
2022-10-19T19:43:44.060Z,18.35
2022-10-19T19:46:13.724Z,17.69
2022-10-19T19:48:42.847Z,16.79
2022-10-19T19:51:22.034Z,16.41
2022-10-19T19:53:50.051Z,17.31
2022-10-19T19:56:18.393Z,18.04
2022-10-19T19:58:46.030Z,17.81
2022-10-19T20:01:18.137Z,17.83
2022-10-19T20:03:46.578Z,17.77
2022-10-19T20:06:14.813Z,18.19
2022-10-19T20:08:42.463Z,17.62
2022-10-19T20:11:11.844Z,16.16
2022-10-19T20:13:40.179Z,16.54
2022-10-19T20:16:09.425Z,16.43
2022-10-19T20:18:37.480Z,16.94
2022-10-19T20:21:05.624Z,17.20
2022-10-19T20:23:33.619Z,16.94
2022-10-19T20:26:01.658Z,17.06
2022-10-19T20:28:29.316Z,16.81
2022-10-19T20:31:15.323Z,17.09
2022-10-19T20:33:43.769Z,16.64
2022-10-19T20:36:15.553Z,17.42
2022-10-19T20:41:46.398Z,17.39
2022-10-19T20:44:14.160Z,17.26
2022-10-19T20:46:41.589Z,17.38
2022-10-19T20:49:10.312Z,16.82
2022-10-19T20:51:38.905Z,17.19
2022-10-19T20:54:07.784Z,17.51
2022-10-19T20:56:36.572Z,16.88
2022-10-19T20:59:05.920Z,17.69
2022-10-19T21:01:34.318Z,17.14
2022-10-19T21:04:05.827Z,17.29
2022-10-19T21:06:34.847Z,17.50
2022-10-19T21:09:02.380Z,17.07
2022-10-19T21:11:31.081Z,17.51
2022-10-19T21:13:59.538Z,17.41
2022-10-19T21:16:37.591Z,17.50
2022-10-19T21:19:07.109Z,16.88
2022-10-19T21:21:38.813Z,16.32
2022-10-19T21:27:05.853Z,16.81
2022-10-19T21:29:33.709Z,16.25
2022-10-19T21:32:01.018Z,16.72
2022-10-19T21:34:29.212Z,16.54
2022-10-19T21:36:57.057Z,17.11
2022-10-19T21:39:24.250Z,17.35
2022-10-19T21:41:51.421Z,17.00
2022-10-19T21:44:18.844Z,16.10
2022-10-19T21:46:49.020Z,15.82
2022-10-19T21:49:16.265Z,15.91
2022-10-19T21:51:47.595Z,15.19
2022-10-19T21:54:15.790Z,15.48
2022-10-19T21:56:43.021Z,15.54
2022-10-19T21:59:12.176Z,14.37
2022-10-19T22:01:41.334Z,13.37
2022-10-19T22:04:11.408Z,13.89
2022-10-19T22:06:38.589Z,14.52
2022-10-19T22:09:06.597Z,13.77
2022-10-19T22:11:34.109Z,14.30
2022-10-19T22:14:02.010Z,13.86
2022-10-19T22:16:29.401Z,13.75
2022-10-19T22:18:56.927Z,14.06
2022-10-19T22:21:30.602Z,14.71
2022-10-19T22:24:02.973Z,14.31
2022-10-19T22:26:30.875Z,15.08
2022-10-19T22:28:59.242Z,14.08
2022-10-19T22:31:26.836Z,13.86
2022-10-19T22:33:54.047Z,13.03
2022-10-19T22:36:21.449Z,14.05
2022-10-19T22:38:48.576Z,13.90
2022-10-19T22:41:53.581Z,14.60
2022-10-19T22:44:39.201Z,13.71
2022-10-19T22:47:06.828Z,14.04
2022-10-19T22:49:34.105Z,13.83
2022-10-19T22:52:01.332Z,14.41
2022-10-19T22:54:29.115Z,13.76
2022-10-19T22:56:56.309Z,13.12
2022-10-19T22:59:23.485Z,13.88
2022-10-19T23:01:51.059Z,13.83
2022-10-19T23:04:18.342Z,14.17
2022-10-19T23:06:45.786Z,14.31
2022-10-19T23:09:13.401Z,14.66
2022-10-19T23:11:40.797Z,15.46
2022-10-19T23:14:08.198Z,16.03
2022-10-19T23:16:35.651Z,15.48
2022-10-19T23:19:02.997Z,15.52
2022-10-19T23:21:30.326Z,15.23
2022-10-19T23:23:57.998Z,14.83
2022-10-19T23:26:25.154Z,15.41
2022-10-19T23:28:52.363Z,14.52
2022-10-19T23:31:23.443Z,14.33
2022-10-19T23:33:51.029Z,14.57
2022-10-19T23:36:20.180Z,15.16
2022-10-19T23:38:48.427Z,14.92
2022-10-19T23:41:15.943Z,14.60
2022-10-19T23:43:43.207Z,13.34
2022-10-19T23:46:11.265Z,14.08
2022-10-19T23:48:38.715Z,14.46
2022-10-19T23:51:13.257Z,14.27
2022-10-19T23:53:41.726Z,14.25
2022-10-19T23:56:12.808Z,13.65
2022-10-19T23:58:40.175Z,13.99
